createdAt,value
2023-03-26T00:01:46.385Z,2.67
2023-03-26T00:05:49.710Z,2.08
2023-03-26T00:09:55.688Z,2.30
2023-03-26T00:13:58.708Z,2.45
2023-03-26T00:18:01.862Z,2.08
2023-03-26T00:22:04.732Z,2.10
2023-03-26T00:26:10.603Z,2.50
2023-03-26T00:30:14.028Z,2.65
2023-03-26T00:34:18.569Z,2.10
2023-03-26T00:38:23.931Z,2.30
2023-03-26T00:42:32.622Z,2.70
2023-03-26T00:46:39.049Z,2.55
2023-03-26T00:50:42.932Z,2.72
2023-03-26T00:54:47.122Z,2.50
2023-03-26T00:58:54.634Z,2.50
2023-03-26T01:03:02.184Z,2.70
2023-03-26T01:07:10.927Z,2.35
2023-03-26T01:11:16.689Z,2.45
2023-03-26T01:15:22.147Z,2.35
2023-03-26T01:19:30.357Z,2.60
2023-03-26T01:23:46.689Z,3.00
2023-03-26T01:27:58.791Z,3.60
2023-03-26T01:32:16.177Z,4.20
2023-03-26T01:36:35.451Z,3.90
2023-03-26T01:40:43.621Z,3.85
2023-03-26T01:45:03.130Z,4.05
2023-03-26T01:49:14.495Z,4.00
2023-03-26T01:53:23.218Z,4.55
2023-03-26T01:57:38.331Z,4.25
2023-03-26T02:01:48.280Z,5.75
2023-03-26T02:05:56.603Z,4.72
2023-03-26T02:10:06.137Z,4.57
2023-03-26T02:14:10.374Z,4.85
2023-03-26T02:18:15.312Z,5.28
2023-03-26T02:22:18.448Z,5.18
2023-03-26T02:26:22.303Z,6.03
2023-03-26T02:30:37.734Z,6.22
2023-03-26T02:34:41.899Z,5.65
2023-03-26T02:38:44.980Z,6.68
2023-03-26T02:42:51.123Z,6.30
2023-03-26T02:46:53.972Z,4.97
2023-03-26T02:51:18.225Z,5.00
2023-03-26T02:55:39.260Z,5.13
2023-03-26T02:59:42.061Z,6.38
2023-03-26T03:04:08.271Z,5.57
2023-03-26T03:08:13.297Z,5.03
2023-03-26T03:12:29.270Z,5.85
2023-03-26T03:16:32.099Z,5.88
2023-03-26T03:20:39.920Z,6.28
2023-03-26T03:24:44.608Z,5.95
2023-03-26T03:28:47.327Z,5.82
2023-03-26T03:32:51.958Z,5.82
2023-03-26T03:36:58.109Z,5.50
2023-03-26T03:41:12.567Z,5.78
2023-03-26T03:45:19.111Z,6.65
2023-03-26T03:49:42.956Z,6.68
2023-03-26T03:53:47.343Z,6.38
2023-03-26T03:57:56.184Z,6.43
2023-03-26T04:02:00.877Z,6.10
2023-03-26T04:06:18.674Z,6.53
2023-03-26T04:10:26.980Z,6.20
2023-03-26T04:14:49.232Z,6.90
2023-03-26T04:18:54.436Z,6.07
2023-03-26T04:22:58.145Z,6.85
2023-03-26T04:27:02.987Z,6.20
2023-03-26T04:31:17.793Z,6.80
2023-03-26T04:35:21.270Z,7.18
2023-03-26T04:39:30.420Z,7.10
2023-03-26T04:43:51.609Z,7.35
2023-03-26T04:48:07.276Z,6.93
2023-03-26T04:52:12.132Z,7.05
2023-03-26T04:56:51.366Z,7.70
2023-03-26T05:00:57.319Z,7.18
2023-03-26T05:05:02.898Z,6.63
2023-03-26T05:09:08.478Z,7.50
2023-03-26T05:13:44.655Z,7.30
2023-03-26T05:17:49.913Z,6.97
2023-03-26T05:22:05.415Z,7.00
2023-03-26T05:26:12.635Z,6.57
2023-03-26T05:30:19.253Z,7.10
2023-03-26T05:34:27.100Z,6.70
2023-03-26T05:38:31.938Z,7.07
2023-03-26T05:42:35.829Z,6.93
2023-03-26T05:47:01.305Z,7.40
2023-03-26T05:51:06.400Z,6.32
2023-03-26T05:55:11.349Z,6.28
2023-03-26T05:59:43.099Z,6.43
2023-03-26T06:03:54.874Z,6.18
2023-03-26T06:08:02.669Z,6.97
2023-03-26T06:12:13.609Z,7.03
2023-03-26T06:16:26.816Z,7.03
2023-03-26T06:20:35.532Z,6.78
2023-03-26T06:24:44.721Z,6.82
2023-03-26T06:29:07.551Z,6.88
2023-03-26T06:33:34.094Z,6.47
2023-03-26T06:37:37.089Z,6.88
2023-03-26T06:41:40.205Z,6.90
2023-03-26T06:46:01.170Z,7.57
2023-03-26T06:50:32.038Z,7.35
2023-03-26T06:54:56.596Z,7.47
2023-03-26T06:59:17.762Z,6.68
2023-03-26T07:03:40.484Z,8.05
2023-03-26T07:08:01.651Z,8.23
2023-03-26T07:12:23.182Z,8.07
2023-03-26T07:16:26.318Z,7.22
2023-03-26T07:20:44.794Z,8.00
2023-03-26T07:24:48.488Z,7.38
2023-03-26T07:29:16.432Z,7.25
2023-03-26T07:34:02.280Z,7.35
2023-03-26T07:38:42.390Z,7.63
2023-03-26T07:43:18.473Z,8.00
2023-03-26T07:47:46.933Z,7.22
2023-03-26T07:51:53.685Z,7.70
2023-03-26T07:56:31.556Z,7.60
2023-03-26T08:00:46.524Z,8.05
2023-03-26T08:05:18.976Z,7.75
2023-03-26T08:10:06.912Z,7.35
2023-03-26T08:14:36.490Z,5.88
2023-03-26T08:18:48.671Z,5.30
2023-03-26T08:22:56.533Z,5.45
2023-03-26T08:27:08.590Z,5.25
2023-03-26T08:31:15.294Z,4.82
2023-03-26T08:35:18.108Z,5.10
2023-03-26T08:39:22.244Z,4.18
2023-03-26T08:43:46.055Z,5.22
2023-03-26T08:48:30.255Z,4.57
2023-03-26T08:53:02.346Z,4.20
2023-03-26T08:57:32.211Z,4.95
2023-03-26T09:01:58.387Z,4.70
2023-03-26T09:06:34.209Z,4.80
2023-03-26T09:11:03.220Z,5.88
2023-03-26T09:15:35.705Z,6.03
2023-03-26T09:20:02.457Z,5.30
2023-03-26T09:24:25.311Z,5.32
2023-03-26T09:29:03.837Z,4.53
2023-03-26T09:33:32.497Z,4.97
2023-03-26T09:37:56.616Z,4.18
2023-03-26T09:42:11.720Z,4.35
2023-03-26T09:46:27.703Z,4.63
2023-03-26T09:50:41.173Z,5.50
2023-03-26T09:55:15.409Z,5.55
2023-03-26T09:59:44.875Z,5.32
2023-03-26T10:03:58.470Z,5.65
2023-03-26T10:08:12.566Z,5.90
2023-03-26T10:12:25.447Z,6.20
2023-03-26T10:16:40.124Z,6.50
2023-03-26T10:20:54.448Z,8.60
2023-03-26T10:25:19.022Z,8.15
2023-03-26T10:29:44.863Z,6.82
2023-03-26T10:34:01.217Z,7.57
2023-03-26T10:38:16.612Z,8.00
2023-03-26T10:42:36.962Z,6.80
2023-03-26T10:47:03.194Z,6.93
2023-03-26T10:51:36.544Z,6.13
2023-03-26T10:55:41.074Z,6.85
2023-03-26T10:59:43.803Z,6.70
2023-03-26T11:03:52.828Z,5.43
2023-03-26T11:08:03.304Z,5.68
2023-03-26T11:12:25.634Z,2.83
2023-03-26T11:16:37.045Z,3.00
2023-03-26T11:20:44.303Z,2.35
2023-03-26T11:25:15.271Z,2.10
2023-03-26T11:29:33.489Z,6.85
2023-03-26T11:33:45.614Z,2.58
2023-03-26T11:37:54.744Z,2.72
2023-03-26T11:42:04.809Z,2.92
2023-03-26T11:46:21.389Z,2.60
2023-03-26T11:50:28.051Z,4.25
2023-03-26T11:54:32.769Z,3.47
2023-03-26T11:58:44.142Z,3.00
2023-03-26T12:02:49.465Z,2.00
2023-03-26T12:06:56.490Z,1.90
2023-03-26T12:11:08.830Z,2.60
2023-03-26T12:15:15.728Z,1.92
2023-03-26T12:19:20.864Z,1.60
2023-03-26T12:23:46.185Z,1.60
2023-03-26T12:27:51.290Z,1.00
2023-03-26T12:31:58.629Z,1.10
2023-03-26T12:36:18.556Z,1.02
2023-03-26T12:40:30.855Z,1.00
2023-03-26T12:44:55.070Z,0.80
2023-03-26T12:49:06.385Z,1.10
2023-03-26T12:53:30.990Z,0.98
2023-03-26T12:57:40.358Z,1.10
2023-03-26T13:01:53.091Z,1.27
2023-03-26T13:06:16.608Z,0.68
2023-03-26T13:10:50.228Z,0.80
2023-03-26T13:15:23.730Z,1.00
2023-03-26T13:19:34.177Z,0.85
2023-03-26T13:23:44.386Z,1.83
2023-03-26T13:27:56.265Z,1.23
2023-03-26T13:32:09.242Z,1.08
2023-03-26T13:36:23.750Z,0.95
2023-03-26T13:40:38.638Z,1.10
2023-03-26T13:45:04.382Z,0.98
2023-03-26T13:49:15.461Z,0.70
2023-03-26T13:53:22.155Z,1.10
2023-03-26T13:57:33.169Z,0.63
2023-03-26T14:01:43.805Z,0.80
2023-03-26T14:05:50.707Z,0.90
2023-03-26T14:09:58.570Z,1.10
2023-03-26T14:14:10.629Z,1.10
2023-03-26T14:18:29.267Z,0.75
2023-03-26T14:22:38.594Z,0.55
2023-03-26T14:27:00.167Z,0.88
2023-03-26T14:31:19.360Z,0.38
2023-03-26T14:35:35.081Z,0.90
2023-03-26T14:40:05.674Z,0.70
2023-03-26T14:44:48.491Z,0.60
2023-03-26T14:49:20.370Z,0.90
2023-03-26T14:53:30.621Z,1.23
2023-03-26T14:57:59.197Z,0.60
2023-03-26T15:02:38.446Z,0.68
2023-03-26T15:07:11.121Z,0.50
2023-03-26T15:11:24.189Z,0.40
2023-03-26T15:16:00.916Z,0.50
2023-03-26T15:20:46.903Z,0.50
2023-03-26T15:25:20.057Z,0.40
2023-03-26T15:29:50.342Z,0.50
2023-03-26T15:34:50.600Z,0.80
2023-03-26T15:39:25.604Z,0.60
2023-03-26T15:44:24.736Z,0.60
2023-03-26T15:48:56.281Z,0.50
2023-03-26T15:53:07.674Z,0.70
2023-03-26T15:57:20.510Z,1.15
2023-03-26T16:01:35.953Z,1.15
2023-03-26T16:05:56.491Z,1.30
2023-03-26T16:10:16.085Z,1.42
2023-03-26T16:14:23.860Z,1.40
2023-03-26T16:18:34.081Z,1.10
2023-03-26T16:22:43.702Z,1.10
2023-03-26T16:27:22.191Z,1.58
2023-03-26T16:31:39.800Z,1.40
2023-03-26T16:36:07.196Z,1.25
2023-03-26T16:40:36.624Z,3.28
2023-03-26T16:44:46.001Z,4.20
2023-03-26T16:48:52.990Z,5.53
2023-03-26T16:53:02.020Z,6.18
2023-03-26T16:57:17.291Z,6.95
2023-03-26T17:01:29.796Z,7.85
2023-03-26T17:05:38.335Z,7.85
2023-03-26T17:09:55.485Z,7.65
2023-03-26T17:14:08.553Z,7.65
2023-03-26T17:18:31.232Z,7.40
2023-03-26T17:22:43.355Z,7.32
2023-03-26T17:27:39.134Z,9.18
2023-03-26T17:31:46.301Z,8.52
2023-03-26T17:35:51.759Z,8.30
2023-03-26T17:40:38.160Z,6.40
2023-03-26T17:44:51.145Z,6.38
2023-03-26T17:49:00.299Z,6.40
2023-03-26T17:53:05.933Z,6.35
2023-03-26T17:57:14.665Z,7.00
2023-03-26T18:01:28.989Z,6.18
2023-03-26T18:05:34.390Z,6.35
2023-03-26T18:09:57.853Z,6.80
2023-03-26T18:14:41.938Z,6.18
2023-03-26T18:18:52.033Z,6.13
2023-03-26T18:23:00.944Z,5.93
2023-03-26T18:27:13.537Z,5.57
2023-03-26T18:31:20.194Z,6.68
2023-03-26T18:35:33.812Z,5.35
2023-03-26T18:39:36.780Z,5.10
2023-03-26T18:43:44.280Z,4.10
2023-03-26T18:47:52.159Z,5.00
2023-03-26T18:52:01.677Z,4.70
2023-03-26T18:56:20.520Z,4.95
2023-03-26T19:00:25.597Z,4.35
2023-03-26T19:04:33.581Z,3.85
2023-03-26T19:08:44.169Z,3.40
2023-03-26T19:12:54.794Z,3.47
2023-03-26T19:17:01.442Z,3.42
2023-03-26T19:21:05.533Z,2.75
2023-03-26T19:25:21.705Z,3.35
2023-03-26T19:29:31.693Z,3.25
2023-03-26T19:33:42.900Z,2.60
2023-03-26T19:37:55.659Z,3.13
2023-03-26T19:42:00.310Z,2.72
2023-03-26T19:46:03.102Z,2.40
2023-03-26T19:50:23.292Z,3.03
2023-03-26T19:54:26.063Z,2.83
2023-03-26T19:58:30.646Z,2.90
2023-03-26T20:02:33.570Z,2.70
2023-03-26T20:06:43.869Z,2.85
2023-03-26T20:10:47.419Z,2.70
2023-03-26T20:14:51.562Z,2.63
2023-03-26T20:18:57.315Z,2.03
2023-03-26T20:23:02.604Z,2.28
2023-03-26T20:27:05.501Z,2.38
2023-03-26T20:31:13.324Z,2.65
2023-03-26T20:35:19.533Z,2.45
2023-03-26T20:39:45.054Z,2.25
2023-03-26T20:43:52.234Z,2.53
2023-03-26T20:47:58.264Z,2.70
2023-03-26T20:52:05.632Z,2.15
2023-03-26T20:56:13.278Z,2.22
2023-03-26T21:00:20.050Z,2.50
2023-03-26T21:08:50.290Z,2.10
2023-03-26T21:13:08.447Z,2.10
2023-03-26T21:17:22.812Z,2.05
2023-03-26T21:21:43.611Z,2.60
2023-03-26T21:26:06.396Z,2.45
2023-03-26T21:30:14.354Z,2.03
2023-03-26T21:34:18.338Z,1.90
2023-03-26T21:38:26.363Z,2.28
2023-03-26T21:42:30.152Z,1.40
2023-03-26T21:46:42.319Z,1.55
2023-03-26T21:50:46.455Z,2.08
2023-03-26T21:54:51.662Z,1.98
2023-03-26T21:59:01.812Z,1.70
2023-03-26T22:03:13.354Z,1.88
2023-03-26T22:07:21.315Z,1.63
2023-03-26T22:11:28.129Z,1.58
2023-03-26T22:15:31.461Z,1.80
2023-03-26T22:19:35.817Z,1.58
2023-03-26T22:23:38.660Z,1.58
2023-03-26T22:27:49.881Z,2.10
2023-03-26T22:31:53.113Z,1.77
2023-03-26T22:35:56.626Z,1.98
2023-03-26T22:39:59.780Z,1.70
2023-03-26T22:44:16.653Z,2.05
2023-03-26T22:48:23.458Z,1.55
2023-03-26T22:52:27.401Z,1.88
2023-03-26T22:56:30.559Z,2.15
2023-03-26T23:00:34.776Z,2.08
2023-03-26T23:04:38.049Z,2.58
2023-03-26T23:08:41.278Z,1.65
2023-03-26T23:12:44.070Z,2.03
2023-03-26T23:16:48.398Z,2.08
2023-03-26T23:20:53.028Z,2.13
2023-03-26T23:24:55.821Z,1.85
2023-03-26T23:28:58.907Z,2.30
2023-03-26T23:33:03.770Z,2.22
2023-03-26T23:37:06.650Z,2.30
2023-03-26T23:41:09.462Z,2.05
2023-03-26T23:45:13.162Z,1.98
2023-03-26T23:49:17.209Z,1.70
2023-03-26T23:53:20.913Z,1.73
2023-03-26T23:57:23.659Z,2.08
